sensor_id;sensor_type;location;lat;lon;timestamp;pressure;altitude;pressure_sealevel;temperature;humidity
38786;BME280;24535;45.508;12.252;2023-07-09T00:00:25;101922.97;;;28.13;52.48
38786;BME280;24535;45.508;12.252;2023-07-09T00:02:50;101918.75;;;28.10;52.51
38786;BME280;24535;45.508;12.252;2023-07-09T00:05:16;101918.75;;;28.10;52.28
38786;BME280;24535;45.508;12.252;2023-07-09T00:07:42;101920.00;;;28.08;52.38
38786;BME280;24535;45.508;12.252;2023-07-09T00:10:18;101927.25;;;28.07;52.52
38786;BME280;24535;45.508;12.252;2023-07-09T00:12:44;101925.78;;;28.05;52.48
38786;BME280;24535;45.508;12.252;2023-07-09T00:15:10;101923.44;;;28.02;52.68
38786;BME280;24535;45.508;12.252;2023-07-09T00:17:36;101929.06;;;28.00;52.76
38786;BME280;24535;45.508;12.252;2023-07-09T00:20:03;101934.84;;;27.97;52.73
38786;BME280;24535;45.508;12.252;2023-07-09T00:22:38;101926.06;;;27.95;52.78
38786;BME280;24535;45.508;12.252;2023-07-09T00:25:04;101919.34;;;27.91;52.66
38786;BME280;24535;45.508;12.252;2023-07-09T00:27:29;101920.56;;;27.89;52.76
38786;BME280;24535;45.508;12.252;2023-07-09T00:29:58;101919.28;;;27.84;53.09
38786;BME280;24535;45.508;12.252;2023-07-09T00:32:23;101918.81;;;27.81;53.27
38786;BME280;24535;45.508;12.252;2023-07-09T00:34:50;101922.91;;;27.77;53.20
38786;BME280;24535;45.508;12.252;2023-07-09T00:37:17;101919.53;;;27.75;53.51
38786;BME280;24535;45.508;12.252;2023-07-09T00:39:43;101916.16;;;27.73;53.63
38786;BME280;24535;45.508;12.252;2023-07-09T00:42:12;101915.50;;;27.71;53.66
38786;BME280;24535;45.508;12.252;2023-07-09T00:44:39;101918.41;;;27.69;53.66
38786;BME280;24535;45.508;12.252;2023-07-09T00:49:39;101917.56;;;27.69;53.37
38786;BME280;24535;45.508;12.252;2023-07-09T00:54:47;101916.81;;;27.60;53.76
38786;BME280;24535;45.508;12.252;2023-07-09T00:57:13;101924.25;;;27.58;53.87
38786;BME280;24535;45.508;12.252;2023-07-09T00:59:43;101916.97;;;27.58;53.74
38786;BME280;24535;45.508;12.252;2023-07-09T01:02:10;101918.84;;;27.58;54.10
38786;BME280;24535;45.508;12.252;2023-07-09T01:04:35;101919.25;;;27.55;53.93
38786;BME280;24535;45.508;12.252;2023-07-09T01:07:01;101918.38;;;27.54;53.92
38786;BME280;24535;45.508;12.252;2023-07-09T01:09:26;101915.22;;;27.51;54.04
38786;BME280;24535;45.508;12.252;2023-07-09T01:11:52;101918.28;;;27.48;54.31
38786;BME280;24535;45.508;12.252;2023-07-09T01:14:21;101914.91;;;27.46;54.19
38786;BME280;24535;45.508;12.252;2023-07-09T01:16:50;101914.09;;;27.45;54.25
38786;BME280;24535;45.508;12.252;2023-07-09T01:19:25;101909.50;;;27.46;54.32
38786;BME280;24535;45.508;12.252;2023-07-09T01:21:54;101909.50;;;27.46;54.08
38786;BME280;24535;45.508;12.252;2023-07-09T01:27:04;101900.75;;;27.44;53.81
38786;BME280;24535;45.508;12.252;2023-07-09T01:29:30;101902.13;;;27.40;54.12
38786;BME280;24535;45.508;12.252;2023-07-09T01:31:57;101905.41;;;27.35;54.20
38786;BME280;24535;45.508;12.252;2023-07-09T01:34:22;101906.81;;;27.31;54.03
38786;BME280;24535;45.508;12.252;2023-07-09T01:36:50;101905.28;;;27.28;54.48
38786;BME280;24535;45.508;12.252;2023-07-09T01:39:16;101912.09;;;27.24;54.38
38786;BME280;24535;45.508;12.252;2023-07-09T01:41:42;101912.28;;;27.23;54.29
38786;BME280;24535;45.508;12.252;2023-07-09T01:44:07;101911.63;;;27.21;54.49
38786;BME280;24535;45.508;12.252;2023-07-09T01:46:33;101911.16;;;27.17;54.80
38786;BME280;24535;45.508;12.252;2023-07-09T01:48:58;101910.50;;;27.15;54.65
38786;BME280;24535;45.508;12.252;2023-07-09T01:51:23;101914.41;;;27.13;54.85
38786;BME280;24535;45.508;12.252;2023-07-09T01:53:50;101911.88;;;27.11;54.79
38786;BME280;24535;45.508;12.252;2023-07-09T01:56:16;101914.88;;;27.16;54.89
38786;BME280;24535;45.508;12.252;2023-07-09T01:58:41;101911.16;;;27.17;54.87
38786;BME280;24535;45.508;12.252;2023-07-09T02:01:07;101913.69;;;27.19;54.64
38786;BME280;24535;45.508;12.252;2023-07-09T02:03:33;101913.69;;;27.19;54.58
38786;BME280;24535;45.508;12.252;2023-07-09T02:05:58;101909.47;;;27.16;54.73
38786;BME280;24535;45.508;12.252;2023-07-09T02:08:24;101918.97;;;27.12;54.86
38786;BME280;24535;45.508;12.252;2023-07-09T02:10:50;101923.03;;;27.08;55.13
38786;BME280;24535;45.508;12.252;2023-07-09T02:13:16;101920.69;;;27.05;55.11
38786;BME280;24535;45.508;12.252;2023-07-09T02:15:42;101922.91;;;27.01;55.35
38786;BME280;24535;45.508;12.252;2023-07-09T02:18:10;101913.31;;;26.99;55.50
38786;BME280;24535;45.508;12.252;2023-07-09T02:20:36;101917.88;;;26.98;55.48
38786;BME280;24535;45.508;12.252;2023-07-09T02:23:02;101907.22;;;26.97;55.31
38786;BME280;24535;45.508;12.252;2023-07-09T02:25:27;101914.72;;;26.95;55.38
38786;BME280;24535;45.508;12.252;2023-07-09T02:27:53;101915.69;;;26.94;55.47
38786;BME280;24535;45.508;12.252;2023-07-09T02:30:18;101913.38;;;26.91;55.50
38786;BME280;24535;45.508;12.252;2023-07-09T02:32:44;101920.19;;;26.86;55.40
38786;BME280;24535;45.508;12.252;2023-07-09T02:35:09;101921.19;;;26.85;55.26
38786;BME280;24535;45.508;12.252;2023-07-09T02:37:34;101915.13;;;26.83;55.46
38786;BME280;24535;45.508;12.252;2023-07-09T02:40:00;101921.19;;;26.85;55.30
38786;BME280;24535;45.508;12.252;2023-07-09T02:42:25;101925.75;;;26.85;55.43
38786;BME280;24535;45.508;12.252;2023-07-09T02:44:51;101920.53;;;26.83;55.35
38786;BME280;24535;45.508;12.252;2023-07-09T02:47:16;101915.47;;;26.80;55.53
38786;BME280;24535;45.508;12.252;2023-07-09T02:49:41;101925.25;;;26.81;55.44
38786;BME280;24535;45.508;12.252;2023-07-09T02:52:07;101919.50;;;26.84;55.35
38786;BME280;24535;45.508;12.252;2023-07-09T02:54:33;101927.47;;;26.86;55.35
38786;BME280;24535;45.508;12.252;2023-07-09T02:56:58;101929.47;;;26.84;55.18
38786;BME280;24535;45.508;12.252;2023-07-09T02:59:24;101927.13;;;26.81;54.91
38786;BME280;24535;45.508;12.252;2023-07-09T03:01:51;101931.06;;;26.78;55.16
38786;BME280;24535;45.508;12.252;2023-07-09T03:04:17;101927.88;;;26.75;55.17
38786;BME280;24535;45.508;12.252;2023-07-09T03:06:45;101938.00;;;26.73;55.14
38786;BME280;24535;45.508;12.252;2023-07-09T03:09:10;101924.84;;;26.70;55.12
38786;BME280;24535;45.508;12.252;2023-07-09T03:11:36;101934.16;;;26.67;54.99
38786;BME280;24535;45.508;12.252;2023-07-09T03:14:01;101933.50;;;26.65;55.46
38786;BME280;24535;45.508;12.252;2023-07-09T03:16:27;101941.31;;;26.60;55.17
38786;BME280;24535;45.508;12.252;2023-07-09T03:18:53;101936.25;;;26.57;55.51
38786;BME280;24535;45.508;12.252;2023-07-09T03:21:19;101948.09;;;26.56;55.33
38786;BME280;24535;45.508;12.252;2023-07-09T03:23:45;101942.69;;;26.56;55.34
38786;BME280;24535;45.508;12.252;2023-07-09T03:26:10;101936.63;;;26.54;55.23
38786;BME280;24535;45.508;12.252;2023-07-09T03:28:35;101944.91;;;26.52;55.14
38786;BME280;24535;45.508;12.252;2023-07-09T03:31:01;101943.41;;;26.50;55.52
38786;BME280;24535;45.508;12.252;2023-07-09T03:33:26;101944.41;;;26.49;55.63
38786;BME280;24535;45.508;12.252;2023-07-09T03:35:51;101945.44;;;26.48;55.35
38786;BME280;24535;45.508;12.252;2023-07-09T03:38:17;101950.19;;;26.46;55.60
38786;BME280;24535;45.508;12.252;2023-07-09T03:40:42;101952.19;;;26.44;55.69
38786;BME280;24535;45.508;12.252;2023-07-09T03:43:08;101950.66;;;26.41;55.73
38786;BME280;24535;45.508;12.252;2023-07-09T03:45:35;101956.25;;;26.39;55.61
38786;BME280;24535;45.508;12.252;2023-07-09T03:48:01;101951.88;;;26.38;55.68
38786;BME280;24535;45.508;12.252;2023-07-09T03:50:26;101951.03;;;26.38;55.69
38786;BME280;24535;45.508;12.252;2023-07-09T03:52:52;101946.63;;;26.37;56.26
38786;BME280;24535;45.508;12.252;2023-07-09T03:55:17;101957.63;;;26.35;56.07
38786;BME280;24535;45.508;12.252;2023-07-09T03:57:42;101954.94;;;26.35;56.32
38786;BME280;24535;45.508;12.252;2023-07-09T04:00:08;101954.09;;;26.35;56.38
38786;BME280;24535;45.508;12.252;2023-07-09T04:02:37;101949.72;;;26.34;56.40
38786;BME280;24535;45.508;12.252;2023-07-09T04:05:03;101953.25;;;26.34;56.21
38786;BME280;24535;45.508;12.252;2023-07-09T04:07:28;101952.41;;;26.34;55.95
38786;BME280;24535;45.508;12.252;2023-07-09T04:09:54;101947.50;;;26.37;56.30
38786;BME280;24535;45.508;12.252;2023-07-09T04:12:19;101949.66;;;26.42;56.26
38786;BME280;24535;45.508;12.252;2023-07-09T04:14:45;101951.03;;;26.46;56.45
38786;BME280;24535;45.508;12.252;2023-07-09T04:17:10;101948.81;;;26.50;56.34
38786;BME280;24535;45.508;12.252;2023-07-09T04:19:35;101951.53;;;26.50;56.36
38786;BME280;24535;45.508;12.252;2023-07-09T04:22:01;101953.19;;;26.51;56.48
38786;BME280;24535;45.508;12.252;2023-07-09T04:24:26;101956.56;;;26.53;56.30
38786;BME280;24535;45.508;12.252;2023-07-09T04:26:52;101960.09;;;26.53;56.33
38786;BME280;24535;45.508;12.252;2023-07-09T04:29:21;101963.81;;;26.52;56.20
38786;BME280;24535;45.508;12.252;2023-07-09T04:31:47;101959.25;;;26.53;55.97
38786;BME280;24535;45.508;12.252;2023-07-09T04:34:12;101955.72;;;26.52;56.38
38786;BME280;24535;45.508;12.252;2023-07-09T04:36:37;101961.97;;;26.53;56.25
38786;BME280;24535;45.508;12.252;2023-07-09T04:39:03;101961.59;;;26.56;56.10
38786;BME280;24535;45.508;12.252;2023-07-09T04:41:29;101968.53;;;26.58;56.24
38786;BME280;24535;45.508;12.252;2023-07-09T04:43:54;101970.03;;;26.61;55.84
38786;BME280;24535;45.508;12.252;2023-07-09T04:46:20;101968.00;;;26.63;56.18
38786;BME280;24535;45.508;12.252;2023-07-09T04:48:45;101964.94;;;26.66;56.54
38786;BME280;24535;45.508;12.252;2023-07-09T04:51:11;101955.59;;;26.69;56.42
38786;BME280;24535;45.508;12.252;2023-07-09T04:53:36;101966.91;;;26.72;56.36
38786;BME280;24535;45.508;12.252;2023-07-09T04:56:02;101959.47;;;26.74;56.41
38786;BME280;24535;45.508;12.252;2023-07-09T04:58:28;101969.91;;;26.77;56.52
38786;BME280;24535;45.508;12.252;2023-07-09T05:00:56;101975.66;;;26.82;56.45
38786;BME280;24535;45.508;12.252;2023-07-09T05:03:21;101975.94;;;26.87;56.11
38786;BME280;24535;45.508;12.252;2023-07-09T05:05:47;101974.22;;;26.95;56.58
38786;BME280;24535;45.508;12.252;2023-07-09T05:08:13;101972.94;;;27.05;56.48
38786;BME280;24535;45.508;12.252;2023-07-09T05:10:42;101974.75;;;27.13;56.03
38786;BME280;24535;45.508;12.252;2023-07-09T05:13:07;101985.03;;;27.18;55.66
38786;BME280;24535;45.508;12.252;2023-07-09T05:15:33;101978.63;;;27.19;55.56
38786;BME280;24535;45.508;12.252;2023-07-09T05:17:58;101975.72;;;27.20;55.64
38786;BME280;24535;45.508;12.252;2023-07-09T05:20:23;101976.38;;;27.22;55.61
38786;BME280;24535;45.508;12.252;2023-07-09T05:22:50;101982.47;;;27.24;55.74
38786;BME280;24535;45.508;12.252;2023-07-09T05:25:15;101993.94;;;27.26;55.94
38786;BME280;24535;45.508;12.252;2023-07-09T05:27:40;101994.59;;;27.28;55.29
38786;BME280;24535;45.508;12.252;2023-07-09T05:30:06;101997.94;;;27.30;55.43
38786;BME280;24535;45.508;12.252;2023-07-09T05:32:31;101997.59;;;27.33;55.38
38786;BME280;24535;45.508;12.252;2023-07-09T05:34:57;102004.31;;;27.38;55.26
38786;BME280;24535;45.508;12.252;2023-07-09T05:37:22;102003.28;;;27.39;55.33
38786;BME280;24535;45.508;12.252;2023-07-09T05:39:47;102005.66;;;27.42;55.60
38786;BME280;24535;45.508;12.252;2023-07-09T05:42:13;102005.66;;;27.42;55.43
38786;BME280;24535;45.508;12.252;2023-07-09T05:44:38;102010.69;;;27.45;55.34
38786;BME280;24535;45.508;12.252;2023-07-09T05:47:03;102003.41;;;27.45;55.52
38786;BME280;24535;45.508;12.252;2023-07-09T05:49:29;102006.81;;;27.47;55.54
38786;BME280;24535;45.508;12.252;2023-07-09T05:51:54;102006.25;;;27.52;55.75
38786;BME280;24535;45.508;12.252;2023-07-09T05:54:20;102000.63;;;27.53;55.25
38786;BME280;24535;45.508;12.252;2023-07-09T05:56:46;102010.28;;;27.56;54.91
38786;BME280;24535;45.508;12.252;2023-07-09T05:59:12;102007.38;;;27.57;54.88
38786;BME280;24535;45.508;12.252;2023-07-09T06:01:37;102014.28;;;27.60;55.03
38786;BME280;24535;45.508;12.252;2023-07-09T06:04:03;102008.53;;;27.63;54.88
38786;BME280;24535;45.508;12.252;2023-07-09T06:06:28;102010.84;;;27.66;54.93
38786;BME280;24535;45.508;12.252;2023-07-09T06:08:54;102016.56;;;27.71;54.73
38786;BME280;24535;45.508;12.252;2023-07-09T06:11:19;102010.41;;;27.77;54.87
38786;BME280;24535;45.508;12.252;2023-07-09T06:13:47;102017.16;;;27.81;55.09
38786;BME280;24535;45.508;12.252;2023-07-09T06:16:15;102015.94;;;27.84;54.54
38786;BME280;24535;45.508;12.252;2023-07-09T06:18:41;102003.88;;;27.87;54.23
38786;BME280;24535;45.508;12.252;2023-07-09T06:21:06;102007.91;;;27.91;54.27
38786;BME280;24535;45.508;12.252;2023-07-09T06:23:34;102015.47;;;27.95;53.81
38786;BME280;24535;45.508;12.252;2023-07-09T06:26:00;102016.78;;;27.99;53.87
38786;BME280;24535;45.508;12.252;2023-07-09T06:28:26;102010.81;;;28.04;53.85
38786;BME280;24535;45.508;12.252;2023-07-09T06:30:54;102013.13;;;28.07;53.98
38786;BME280;24535;45.508;12.252;2023-07-09T06:33:19;102011.75;;;28.11;53.44
38786;BME280;24535;45.508;12.252;2023-07-09T06:38:13;102007.47;;;28.17;53.09
38786;BME280;24535;45.508;12.252;2023-07-09T06:40:39;102015.22;;;28.20;53.07
38786;BME280;24535;45.508;12.252;2023-07-09T06:43:04;102010.91;;;28.25;53.28
38786;BME280;24535;45.508;12.252;2023-07-09T06:45:29;102013.72;;;28.32;52.84
38786;BME280;24535;45.508;12.252;2023-07-09T06:47:55;102010.72;;;28.42;52.54
38786;BME280;24535;45.508;12.252;2023-07-09T06:50:20;102016.03;;;28.50;52.32
38786;BME280;24535;45.508;12.252;2023-07-09T06:52:46;102013.59;;;28.55;51.93
38786;BME280;24535;45.508;12.252;2023-07-09T06:55:11;102012.00;;;28.61;51.77
38786;BME280;24535;45.508;12.252;2023-07-09T06:57:37;102019.75;;;28.64;51.60
38786;BME280;24535;45.508;12.252;2023-07-09T07:00:02;102016.66;;;28.67;51.87
38786;BME280;24535;45.508;12.252;2023-07-09T07:02:28;102019.63;;;28.72;51.82
38786;BME280;24535;45.508;12.252;2023-07-09T07:04:53;102010.94;;;28.76;52.11
38786;BME280;24535;45.508;12.252;2023-07-09T07:07:19;102016.06;;;28.86;52.12
38786;BME280;24535;45.508;12.252;2023-07-09T07:09:44;102021.50;;;29.07;52.18
38786;BME280;24535;45.508;12.252;2023-07-09T07:12:10;102022.16;;;29.31;51.05
38786;BME280;24535;45.508;12.252;2023-07-09T07:14:35;102016.25;;;29.49;50.77
38786;BME280;24535;45.508;12.252;2023-07-09T07:17:01;102019.34;;;29.67;50.93
38786;BME280;24535;45.508;12.252;2023-07-09T07:19:26;102020.09;;;29.83;50.15
38786;BME280;24535;45.508;12.252;2023-07-09T07:21:52;102019.09;;;29.90;49.55
38786;BME280;24535;45.508;12.252;2023-07-09T07:24:17;102011.56;;;29.92;49.27
38786;BME280;24535;45.508;12.252;2023-07-09T07:26:42;102017.63;;;29.88;49.37
38786;BME280;24535;45.508;12.252;2023-07-09T07:29:08;102010.69;;;29.85;49.10
38786;BME280;24535;45.508;12.252;2023-07-09T07:31:33;102004.19;;;29.79;49.21
38786;BME280;24535;45.508;12.252;2023-07-09T07:33:58;102011.06;;;29.75;49.30
38786;BME280;24535;45.508;12.252;2023-07-09T07:36:24;102011.44;;;29.72;49.01
38786;BME280;24535;45.508;12.252;2023-07-09T07:38:49;102003.91;;;29.68;49.24
38786;BME280;24535;45.508;12.252;2023-07-09T07:41:14;102007.84;;;29.65;49.18
38786;BME280;24535;45.508;12.252;2023-07-09T07:43:40;102011.81;;;29.63;49.41
38786;BME280;24535;45.508;12.252;2023-07-09T07:46:06;102013.69;;;29.62;49.23
38786;BME280;24535;45.508;12.252;2023-07-09T07:48:31;102008.56;;;29.80;49.75
38786;BME280;24535;45.508;12.252;2023-07-09T07:51:00;102004.47;;;30.26;49.39
38786;BME280;24535;45.508;12.252;2023-07-09T07:53:29;102003.66;;;30.87;48.61
38786;BME280;24535;45.508;12.252;2023-07-09T07:55:55;101998.72;;;31.50;47.35
38786;BME280;24535;45.508;12.252;2023-07-09T07:58:21;102003.03;;;32.11;46.61
38786;BME280;24535;45.508;12.252;2023-07-09T08:00:47;102005.31;;;32.65;45.59
38786;BME280;24535;45.508;12.252;2023-07-09T08:03:12;102008.41;;;33.14;44.11
38786;BME280;24535;45.508;12.252;2023-07-09T08:05:37;102008.50;;;33.57;44.07
38786;BME280;24535;45.508;12.252;2023-07-09T08:08:03;102012.06;;;34.01;42.86
38786;BME280;24535;45.508;12.252;2023-07-09T08:10:28;102006.44;;;34.33;41.98
38786;BME280;24535;45.508;12.252;2023-07-09T08:12:54;102007.19;;;34.58;41.80
38786;BME280;24535;45.508;12.252;2023-07-09T08:15:22;102005.97;;;34.84;40.72
38786;BME280;24535;45.508;12.252;2023-07-09T08:17:47;102008.06;;;35.01;40.64
38786;BME280;24535;45.508;12.252;2023-07-09T08:20:12;102011.44;;;35.14;40.28
38786;BME280;24535;45.508;12.252;2023-07-09T08:22:40;102009.28;;;35.28;39.58
38786;BME280;24535;45.508;12.252;2023-07-09T08:25:06;102009.31;;;35.40;39.95
38786;BME280;24535;45.508;12.252;2023-07-09T08:27:31;102015.66;;;35.52;40.26
38786;BME280;24535;45.508;12.252;2023-07-09T08:29:56;102015.56;;;35.59;39.99
38786;BME280;24535;45.508;12.252;2023-07-09T08:32:21;102029.16;;;35.65;39.53
38786;BME280;24535;45.508;12.252;2023-07-09T08:34:47;102017.09;;;35.66;39.34
38786;BME280;24535;45.508;12.252;2023-07-09T08:37:12;102019.72;;;35.61;39.68
38786;BME280;24535;45.508;12.252;2023-07-09T08:39:38;102018.75;;;35.56;39.42
38786;BME280;24535;45.508;12.252;2023-07-09T08:49:38;102018.91;;;35.49;39.33
38786;BME280;24535;45.508;12.252;2023-07-09T08:52:19;102012.66;;;35.42;39.14
38786;BME280;24535;45.508;12.252;2023-07-09T08:54:46;102017.16;;;35.36;39.53
38786;BME280;24535;45.508;12.252;2023-07-09T08:59:41;102008.94;;;35.25;39.32
38786;BME280;24535;45.508;12.252;2023-07-09T09:02:09;102002.88;;;35.23;39.47
38786;BME280;24535;45.508;12.252;2023-07-09T09:04:41;102005.47;;;35.17;39.55
38786;BME280;24535;45.508;12.252;2023-07-09T09:07:17;101999.28;;;35.10;39.56
38786;BME280;24535;45.508;12.252;2023-07-09T09:09:52;102002.25;;;35.09;39.58
38786;BME280;24535;45.508;12.252;2023-07-09T09:12:22;101995.88;;;34.97;39.46
38786;BME280;24535;45.508;12.252;2023-07-09T09:15:00;101997.13;;;34.82;39.97
38786;BME280;24535;45.508;12.252;2023-07-09T09:17:27;101992.09;;;34.67;40.29
38786;BME280;24535;45.508;12.252;2023-07-09T09:19:59;101998.84;;;34.53;40.11
38786;BME280;24535;45.508;12.252;2023-07-09T09:22:29;101996.00;;;34.41;40.16
38786;BME280;24535;45.508;12.252;2023-07-09T09:25:38;101999.63;;;34.24;40.89
38786;BME280;24535;45.508;12.252;2023-07-09T09:27:43;102004.25;;;34.05;41.20
38786;BME280;24535;45.508;12.252;2023-07-09T09:30:15;102000.44;;;33.87;41.18
38786;BME280;24535;45.508;12.252;2023-07-09T09:32:42;102009.44;;;33.69;41.74
38786;BME280;24535;45.508;12.252;2023-07-09T09:35:12;102002.88;;;33.52;41.97
38786;BME280;24535;45.508;12.252;2023-07-09T09:37:38;102012.84;;;33.40;41.96
38786;BME280;24535;45.508;12.252;2023-07-09T09:40:04;102008.31;;;33.27;42.74
38786;BME280;24535;45.508;12.252;2023-07-09T09:42:29;102003.97;;;33.19;42.93
38786;BME280;24535;45.508;12.252;2023-07-09T09:44:55;102005.75;;;33.07;42.49
38786;BME280;24535;45.508;12.252;2023-07-09T09:47:20;102007.50;;;32.95;43.26
38786;BME280;24535;45.508;12.252;2023-07-09T09:49:46;102002.31;;;32.80;43.11
38786;BME280;24535;45.508;12.252;2023-07-09T09:52:16;102001.97;;;32.70;43.69
38786;BME280;24535;45.508;12.252;2023-07-09T09:55:09;102008.28;;;32.64;43.75
38786;BME280;24535;45.508;12.252;2023-07-09T09:57:29;102010.00;;;32.58;44.03
38786;BME280;24535;45.508;12.252;2023-07-09T09:59:55;102010.44;;;32.55;44.16
38786;BME280;24535;45.508;12.252;2023-07-09T10:02:21;102014.03;;;32.49;44.19
38786;BME280;24535;45.508;12.252;2023-07-09T10:04:48;102007.97;;;32.47;44.31
38786;BME280;24535;45.508;12.252;2023-07-09T10:07:35;102014.06;;;32.42;44.76
38786;BME280;24535;45.508;12.252;2023-07-09T10:09:59;102010.06;;;32.38;44.65
38786;BME280;24535;45.508;12.252;2023-07-09T10:12:30;102004.03;;;32.30;44.91
38786;BME280;24535;45.508;12.252;2023-07-09T10:15:07;102002.16;;;32.23;44.49
38786;BME280;24535;45.508;12.252;2023-07-09T10:31:15;102003.28;;;31.96;45.82
38786;BME280;24535;45.508;12.252;2023-07-09T10:38:40;102008.72;;;31.76;46.46
38786;BME280;24535;45.508;12.252;2023-07-09T10:41:11;102008.72;;;31.76;46.94
38786;BME280;24535;45.508;12.252;2023-07-09T10:43:44;102005.81;;;31.77;47.30
38786;BME280;24535;45.508;12.252;2023-07-09T10:46:11;102001.19;;;31.78;47.23
38786;BME280;24535;45.508;12.252;2023-07-09T10:48:46;101998.06;;;31.74;47.33
38786;BME280;24535;45.508;12.252;2023-07-09T10:51:31;102007.06;;;31.75;47.21
38786;BME280;24535;45.508;12.252;2023-07-09T10:56:24;102007.06;;;31.75;47.36
38786;BME280;24535;45.508;12.252;2023-07-09T10:59:13;102005.63;;;31.72;47.34
38786;BME280;24535;45.508;12.252;2023-07-09T11:01:42;102006.03;;;31.69;47.65
38786;BME280;24535;45.508;12.252;2023-07-09T11:04:31;101997.03;;;31.69;47.51
38786;BME280;24535;45.508;12.252;2023-07-09T11:06:54;101995.34;;;31.68;47.81
38786;BME280;24535;45.508;12.252;2023-07-09T11:09:26;102000.59;;;31.69;47.80
38786;BME280;24535;45.508;12.252;2023-07-09T11:11:55;102000.59;;;31.69;47.61
38786;BME280;24535;45.508;12.252;2023-07-09T11:16:51;102007.50;;;31.65;47.59
38786;BME280;24535;45.508;12.252;2023-07-09T11:19:18;102007.69;;;31.64;48.23
38786;BME280;24535;45.508;12.252;2023-07-09T11:21:56;102004.78;;;31.65;47.92
38786;BME280;24535;45.508;12.252;2023-07-09T11:24:32;101994.50;;;31.67;47.91
38786;BME280;24535;45.508;12.252;2023-07-09T11:26:57;101998.28;;;31.66;47.44
38786;BME280;24535;45.508;12.252;2023-07-09T11:29:25;101995.78;;;31.65;47.73
38786;BME280;24535;45.508;12.252;2023-07-09T11:31:51;101992.22;;;31.64;47.88
38786;BME280;24535;45.508;12.252;2023-07-09T11:34:17;101993.06;;;31.65;47.92
38786;BME280;24535;45.508;12.252;2023-07-09T11:36:48;101993.06;;;31.65;47.75
38786;BME280;24535;45.508;12.252;2023-07-09T11:41:48;101996.63;;;31.65;47.75
38786;BME280;24535;45.508;12.252;2023-07-09T11:44:18;101990.75;;;31.62;47.71
38786;BME280;24535;45.508;12.252;2023-07-09T11:46:50;101992.00;;;31.59;47.77
38786;BME280;24535;45.508;12.252;2023-07-09T11:49:17;101992.00;;;31.59;48.18
38786;BME280;24535;45.508;12.252;2023-07-09T11:51:45;101993.69;;;31.60;48.01
38786;BME280;24535;45.508;12.252;2023-07-09T11:54:11;101993.25;;;31.63;47.78
38786;BME280;24535;45.508;12.252;2023-07-09T11:56:37;101988.03;;;31.62;47.76
38786;BME280;24535;45.508;12.252;2023-07-09T11:59:03;101986.53;;;31.59;47.91
38786;BME280;24535;45.508;12.252;2023-07-09T12:01:42;101996.59;;;31.59;47.87
38786;BME280;24535;45.508;12.252;2023-07-09T12:04:11;101994.31;;;31.56;47.98
38786;BME280;24535;45.508;12.252;2023-07-09T12:06:40;101981.72;;;31.55;48.05
38786;BME280;24535;45.508;12.252;2023-07-09T12:09:05;101981.97;;;31.53;48.01
38786;BME280;24535;45.508;12.252;2023-07-09T12:11:32;101972.31;;;31.50;47.92
38786;BME280;24535;45.508;12.252;2023-07-09T12:14:05;101973.13;;;31.51;48.08
38786;BME280;24535;45.508;12.252;2023-07-09T12:16:36;101981.31;;;31.51;48.16
38786;BME280;24535;45.508;12.252;2023-07-09T12:19:01;101977.34;;;31.54;48.27
38786;BME280;24535;45.508;12.252;2023-07-09T12:21:26;101976.09;;;31.56;48.05
38786;BME280;24535;45.508;12.252;2023-07-09T12:23:53;101978.38;;;31.59;47.87
38786;BME280;24535;45.508;12.252;2023-07-09T12:26:19;101973.97;;;31.58;48.00
38786;BME280;24535;45.508;12.252;2023-07-09T12:28:51;101973.16;;;31.58;48.04
38786;BME280;24535;45.508;12.252;2023-07-09T12:31:17;101967.47;;;31.59;47.75
38786;BME280;24535;45.508;12.252;2023-07-09T12:33:50;101964.56;;;31.61;47.42
38786;BME280;24535;45.508;12.252;2023-07-09T12:36:17;101965.16;;;31.63;47.38
38786;BME280;24535;45.508;12.252;2023-07-09T12:38:44;101959.06;;;31.67;47.26
38786;BME280;24535;45.508;12.252;2023-07-09T12:41:28;101958.03;;;31.68;47.32
38786;BME280;24535;45.508;12.252;2023-07-09T12:43:54;101956.34;;;31.67;47.18
38786;BME280;24535;45.508;12.252;2023-07-09T12:46:20;101952.59;;;31.68;46.84
38786;BME280;24535;45.508;12.252;2023-07-09T12:48:46;101952.59;;;31.68;46.93
38786;BME280;24535;45.508;12.252;2023-07-09T12:51:16;101949.88;;;31.68;46.98
38786;BME280;24535;45.508;12.252;2023-07-09T12:53:44;101949.00;;;31.68;47.06
38786;BME280;24535;45.508;12.252;2023-07-09T12:56:11;101941.03;;;31.66;46.81
38786;BME280;24535;45.508;12.252;2023-07-09T12:58:37;101937.72;;;31.64;47.09
38786;BME280;24535;45.508;12.252;2023-07-09T13:01:07;101936.84;;;31.64;47.24
38786;BME280;24535;45.508;12.252;2023-07-09T13:03:33;101939.38;;;31.65;47.09
38786;BME280;24535;45.508;12.252;2023-07-09T13:06:03;101930.16;;;31.66;46.99
38786;BME280;24535;45.508;12.252;2023-07-09T13:08:30;101929.09;;;31.67;46.73
38786;BME280;24535;45.508;12.252;2023-07-09T13:10:56;101927.84;;;31.70;46.54
38786;BME280;24535;45.508;12.252;2023-07-09T13:13:24;101921.56;;;31.69;46.90
38786;BME280;24535;45.508;12.252;2023-07-09T13:15:55;101922.81;;;31.67;46.84
38786;BME280;24535;45.508;12.252;2023-07-09T13:18:28;101920.91;;;31.67;46.88
38786;BME280;24535;45.508;12.252;2023-07-09T13:20:56;101907.50;;;31.66;46.96
38786;BME280;24535;45.508;12.252;2023-07-09T13:23:26;101918.63;;;31.64;46.95
38786;BME280;24535;45.508;12.252;2023-07-09T13:25:51;101919.06;;;31.61;47.08